sensor_id;sensor_type;location;lat;lon;timestamp;P1;durP1;ratioP1;P2;durP2;ratioP2
44169;SDS011;29836;52.286;9.576;2023-06-26T00:00:11;5.53;;;4.68;;
44169;SDS011;29836;52.286;9.576;2023-06-26T00:02:37;6.97;;;5.35;;
44169;SDS011;29836;52.286;9.576;2023-06-26T00:05:03;7.28;;;5.30;;
44169;SDS011;29836;52.286;9.576;2023-06-26T00:07:30;8.50;;;4.63;;
44169;SDS011;29836;52.286;9.576;2023-06-26T00:09:58;7.75;;;4.65;;
44169;SDS011;29836;52.286;9.576;2023-06-26T00:12:24;5.90;;;4.63;;
44169;SDS011;29836;52.286;9.576;2023-06-26T00:14:50;5.80;;;4.78;;
44169;SDS011;29836;52.286;9.576;2023-06-26T00:17:15;6.10;;;4.47;;
44169;SDS011;29836;52.286;9.576;2023-06-26T00:19:41;7.03;;;5.32;;
44169;SDS011;29836;52.286;9.576;2023-06-26T00:22:06;5.82;;;4.80;;
44169;SDS011;29836;52.286;9.576;2023-06-26T00:24:32;5.97;;;4.70;;
44169;SDS011;29836;52.286;9.576;2023-06-26T00:26:57;6.55;;;4.90;;
44169;SDS011;29836;52.286;9.576;2023-06-26T00:29:23;7.50;;;4.70;;
44169;SDS011;29836;52.286;9.576;2023-06-26T00:31:49;7.25;;;4.82;;
44169;SDS011;29836;52.286;9.576;2023-06-26T00:34:15;6.38;;;4.85;;
44169;SDS011;29836;52.286;9.576;2023-06-26T00:36:40;6.40;;;4.78;;
44169;SDS011;29836;52.286;9.576;2023-06-26T00:39:08;6.10;;;4.80;;
44169;SDS011;29836;52.286;9.576;2023-06-26T00:41:35;6.90;;;4.80;;
44169;SDS011;29836;52.286;9.576;2023-06-26T00:44:04;6.70;;;4.78;;
44169;SDS011;29836;52.286;9.576;2023-06-26T00:46:30;6.43;;;4.78;;
44169;SDS011;29836;52.286;9.576;2023-06-26T00:48:56;5.30;;;4.45;;
44169;SDS011;29836;52.286;9.576;2023-06-26T00:51:25;7.55;;;4.78;;
44169;SDS011;29836;52.286;9.576;2023-06-26T00:53:52;5.82;;;4.22;;
44169;SDS011;29836;52.286;9.576;2023-06-26T00:56:18;7.55;;;5.00;;
44169;SDS011;29836;52.286;9.576;2023-06-26T00:58:45;6.60;;;4.75;;
44169;SDS011;29836;52.286;9.576;2023-06-26T01:01:11;7.28;;;4.53;;
44169;SDS011;29836;52.286;9.576;2023-06-26T01:03:45;8.05;;;5.00;;
44169;SDS011;29836;52.286;9.576;2023-06-26T01:06:16;6.68;;;4.93;;
44169;SDS011;29836;52.286;9.576;2023-06-26T01:08:43;6.38;;;4.80;;
44169;SDS011;29836;52.286;9.576;2023-06-26T01:11:10;6.38;;;4.65;;
44169;SDS011;29836;52.286;9.576;2023-06-26T01:13:36;6.28;;;4.60;;
44169;SDS011;29836;52.286;9.576;2023-06-26T01:16:03;6.47;;;4.70;;
44169;SDS011;29836;52.286;9.576;2023-06-26T01:18:30;6.47;;;4.47;;
44169;SDS011;29836;52.286;9.576;2023-06-26T01:20:57;5.93;;;4.72;;
44169;SDS011;29836;52.286;9.576;2023-06-26T01:23:38;6.25;;;4.78;;
44169;SDS011;29836;52.286;9.576;2023-06-26T01:26:23;6.03;;;4.32;;
44169;SDS011;29836;52.286;9.576;2023-06-26T01:28:54;5.72;;;4.38;;
44169;SDS011;29836;52.286;9.576;2023-06-26T01:31:21;10.18;;;4.40;;
44169;SDS011;29836;52.286;9.576;2023-06-26T01:33:48;6.30;;;4.85;;
44169;SDS011;29836;52.286;9.576;2023-06-26T01:36:14;5.53;;;4.32;;
44169;SDS011;29836;52.286;9.576;2023-06-26T01:38:40;6.15;;;4.53;;
44169;SDS011;29836;52.286;9.576;2023-06-26T01:41:05;8.18;;;4.88;;
44169;SDS011;29836;52.286;9.576;2023-06-26T01:43:43;6.57;;;4.30;;
44169;SDS011;29836;52.286;9.576;2023-06-26T01:46:39;5.80;;;4.68;;
44169;SDS011;29836;52.286;9.576;2023-06-26T01:49:15;6.82;;;5.03;;
44169;SDS011;29836;52.286;9.576;2023-06-26T01:52:34;7.50;;;4.60;;
44169;SDS011;29836;52.286;9.576;2023-06-26T01:54:58;7.47;;;4.47;;
44169;SDS011;29836;52.286;9.576;2023-06-26T01:57:31;8.60;;;5.10;;
44169;SDS011;29836;52.286;9.576;2023-06-26T01:59:58;9.40;;;5.05;;
44169;SDS011;29836;52.286;9.576;2023-06-26T02:02:24;6.75;;;5.30;;
44169;SDS011;29836;52.286;9.576;2023-06-26T02:04:51;6.47;;;4.88;;
44169;SDS011;29836;52.286;9.576;2023-06-26T02:07:17;6.95;;;4.40;;
44169;SDS011;29836;52.286;9.576;2023-06-26T02:09:42;6.70;;;4.82;;
44169;SDS011;29836;52.286;9.576;2023-06-26T02:12:08;9.60;;;5.07;;
44169;SDS011;29836;52.286;9.576;2023-06-26T02:14:34;6.72;;;4.88;;
44169;SDS011;29836;52.286;9.576;2023-06-26T02:17:00;8.95;;;5.05;;
44169;SDS011;29836;52.286;9.576;2023-06-26T02:19:25;6.85;;;4.75;;
44169;SDS011;29836;52.286;9.576;2023-06-26T02:21:52;7.70;;;5.00;;
44169;SDS011;29836;52.286;9.576;2023-06-26T02:24:19;6.53;;;4.70;;
44169;SDS011;29836;52.286;9.576;2023-06-26T02:26:44;6.35;;;4.72;;
44169;SDS011;29836;52.286;9.576;2023-06-26T02:29:10;6.40;;;5.00;;
44169;SDS011;29836;52.286;9.576;2023-06-26T02:31:36;7.25;;;5.20;;
44169;SDS011;29836;52.286;9.576;2023-06-26T02:34:02;9.25;;;4.90;;
44169;SDS011;29836;52.286;9.576;2023-06-26T02:36:28;7.05;;;5.03;;
44169;SDS011;29836;52.286;9.576;2023-06-26T02:38:54;5.82;;;4.63;;
44169;SDS011;29836;52.286;9.576;2023-06-26T02:41:19;9.25;;;4.95;;
44169;SDS011;29836;52.286;9.576;2023-06-26T02:43:45;6.53;;;4.88;;
44169;SDS011;29836;52.286;9.576;2023-06-26T02:46:10;7.53;;;4.60;;
44169;SDS011;29836;52.286;9.576;2023-06-26T02:48:36;6.75;;;4.60;;
44169;SDS011;29836;52.286;9.576;2023-06-26T02:51:01;6.85;;;4.80;;
44169;SDS011;29836;52.286;9.576;2023-06-26T02:53:27;5.95;;;4.68;;
44169;SDS011;29836;52.286;9.576;2023-06-26T02:55:52;6.10;;;4.47;;
44169;SDS011;29836;52.286;9.576;2023-06-26T02:58:18;7.45;;;5.10;;
44169;SDS011;29836;52.286;9.576;2023-06-26T03:00:44;6.88;;;4.35;;
44169;SDS011;29836;52.286;9.576;2023-06-26T03:03:09;6.00;;;4.78;;
44169;SDS011;29836;52.286;9.576;2023-06-26T03:05:35;8.93;;;4.47;;
44169;SDS011;29836;52.286;9.576;2023-06-26T03:08:01;6.40;;;4.18;;
44169;SDS011;29836;52.286;9.576;2023-06-26T03:10:27;6.75;;;4.95;;
44169;SDS011;29836;52.286;9.576;2023-06-26T03:12:53;6.60;;;4.53;;
44169;SDS011;29836;52.286;9.576;2023-06-26T03:15:19;5.55;;;4.10;;
44169;SDS011;29836;52.286;9.576;2023-06-26T03:17:44;7.13;;;5.00;;
44169;SDS011;29836;52.286;9.576;2023-06-26T03:20:10;7.13;;;4.60;;
44169;SDS011;29836;52.286;9.576;2023-06-26T03:22:35;6.55;;;4.70;;
44169;SDS011;29836;52.286;9.576;2023-06-26T03:25:02;8.32;;;4.70;;
44169;SDS011;29836;52.286;9.576;2023-06-26T03:27:28;6.57;;;4.68;;
44169;SDS011;29836;52.286;9.576;2023-06-26T03:29:53;6.78;;;4.78;;
44169;SDS011;29836;52.286;9.576;2023-06-26T03:32:19;8.07;;;4.68;;
44169;SDS011;29836;52.286;9.576;2023-06-26T03:34:44;7.03;;;4.65;;
44169;SDS011;29836;52.286;9.576;2023-06-26T03:37:10;7.88;;;4.38;;
44169;SDS011;29836;52.286;9.576;2023-06-26T03:39:35;6.47;;;4.70;;
44169;SDS011;29836;52.286;9.576;2023-06-26T03:42:01;9.10;;;4.50;;
44169;SDS011;29836;52.286;9.576;2023-06-26T03:44:27;5.45;;;4.47;;
44169;SDS011;29836;52.286;9.576;2023-06-26T03:46:53;7.70;;;4.22;;
44169;SDS011;29836;52.286;9.576;2023-06-26T03:49:19;6.35;;;4.45;;
44169;SDS011;29836;52.286;9.576;2023-06-26T03:51:44;10.32;;;4.07;;
44169;SDS011;29836;52.286;9.576;2023-06-26T03:54:10;5.25;;;4.20;;
44169;SDS011;29836;52.286;9.576;2023-06-26T03:56:36;6.82;;;4.10;;
44169;SDS011;29836;52.286;9.576;2023-06-26T03:59:01;6.40;;;3.67;;
44169;SDS011;29836;52.286;9.576;2023-06-26T04:01:27;5.68;;;4.05;;
44169;SDS011;29836;52.286;9.576;2023-06-26T04:03:53;5.25;;;3.92;;
44169;SDS011;29836;52.286;9.576;2023-06-26T04:06:19;5.72;;;4.15;;
44169;SDS011;29836;52.286;9.576;2023-06-26T04:08:44;6.78;;;4.75;;
44169;SDS011;29836;52.286;9.576;2023-06-26T04:11:10;7.05;;;4.40;;
44169;SDS011;29836;52.286;9.576;2023-06-26T04:13:36;8.32;;;4.43;;
44169;SDS011;29836;52.286;9.576;2023-06-26T04:16:01;7.65;;;4.38;;
44169;SDS011;29836;52.286;9.576;2023-06-26T04:18:27;7.78;;;4.40;;
44169;SDS011;29836;52.286;9.576;2023-06-26T04:21:09;5.03;;;4.05;;
44169;SDS011;29836;52.286;9.576;2023-06-26T04:23:36;6.07;;;4.25;;
44169;SDS011;29836;52.286;9.576;2023-06-26T04:26:03;5.32;;;4.10;;
44169;SDS011;29836;52.286;9.576;2023-06-26T04:28:30;7.10;;;4.35;;
44169;SDS011;29836;52.286;9.576;2023-06-26T04:30:59;6.38;;;4.32;;
44169;SDS011;29836;52.286;9.576;2023-06-26T04:33:26;5.65;;;4.38;;
44169;SDS011;29836;52.286;9.576;2023-06-26T04:35:52;7.95;;;4.68;;
44169;SDS011;29836;52.286;9.576;2023-06-26T04:38:18;5.93;;;4.15;;
44169;SDS011;29836;52.286;9.576;2023-06-26T04:40:44;8.20;;;4.63;;
44169;SDS011;29836;52.286;9.576;2023-06-26T04:43:10;6.88;;;4.10;;
44169;SDS011;29836;52.286;9.576;2023-06-26T04:45:36;6.00;;;4.07;;
44169;SDS011;29836;52.286;9.576;2023-06-26T04:48:02;6.30;;;3.95;;
44169;SDS011;29836;52.286;9.576;2023-06-26T04:50:27;5.53;;;3.78;;
44169;SDS011;29836;52.286;9.576;2023-06-26T04:52:55;6.22;;;4.55;;
44169;SDS011;29836;52.286;9.576;2023-06-26T04:55:21;7.93;;;4.25;;
44169;SDS011;29836;52.286;9.576;2023-06-26T04:57:48;6.07;;;4.43;;
44169;SDS011;29836;52.286;9.576;2023-06-26T05:00:14;6.10;;;4.57;;
44169;SDS011;29836;52.286;9.576;2023-06-26T05:02:40;5.90;;;4.47;;
44169;SDS011;29836;52.286;9.576;2023-06-26T05:05:06;5.55;;;3.92;;
44169;SDS011;29836;52.286;9.576;2023-06-26T05:07:31;8.20;;;4.40;;
44169;SDS011;29836;52.286;9.576;2023-06-26T05:09:57;6.45;;;4.28;;
44169;SDS011;29836;52.286;9.576;2023-06-26T05:12:22;6.28;;;4.20;;
44169;SDS011;29836;52.286;9.576;2023-06-26T05:14:48;10.05;;;4.50;;
44169;SDS011;29836;52.286;9.576;2023-06-26T05:17:14;7.18;;;4.40;;
44169;SDS011;29836;52.286;9.576;2023-06-26T05:19:40;6.13;;;4.25;;
44169;SDS011;29836;52.286;9.576;2023-06-26T05:22:06;5.78;;;4.40;;
44169;SDS011;29836;52.286;9.576;2023-06-26T05:24:33;6.65;;;4.35;;
44169;SDS011;29836;52.286;9.576;2023-06-26T05:27:03;6.07;;;4.50;;
44169;SDS011;29836;52.286;9.576;2023-06-26T05:29:32;6.88;;;4.38;;
44169;SDS011;29836;52.286;9.576;2023-06-26T05:31:58;6.00;;;4.90;;
44169;SDS011;29836;52.286;9.576;2023-06-26T05:34:24;9.55;;;4.45;;
44169;SDS011;29836;52.286;9.576;2023-06-26T05:36:53;6.82;;;4.13;;
44169;SDS011;29836;52.286;9.576;2023-06-26T05:39:23;4.90;;;4.10;;
44169;SDS011;29836;52.286;9.576;2023-06-26T05:41:49;7.45;;;4.50;;
44169;SDS011;29836;52.286;9.576;2023-06-26T05:44:15;7.18;;;4.75;;
44169;SDS011;29836;52.286;9.576;2023-06-26T05:46:41;9.63;;;4.30;;
44169;SDS011;29836;52.286;9.576;2023-06-26T05:49:07;7.30;;;4.25;;
44169;SDS011;29836;52.286;9.576;2023-06-26T05:51:32;7.35;;;4.68;;
44169;SDS011;29836;52.286;9.576;2023-06-26T05:53:58;5.88;;;4.03;;
44169;SDS011;29836;52.286;9.576;2023-06-26T05:56:24;5.90;;;4.30;;
44169;SDS011;29836;52.286;9.576;2023-06-26T05:58:51;8.63;;;4.53;;
44169;SDS011;29836;52.286;9.576;2023-06-26T06:01:17;6.88;;;4.53;;
44169;SDS011;29836;52.286;9.576;2023-06-26T06:03:44;5.68;;;4.53;;
44169;SDS011;29836;52.286;9.576;2023-06-26T06:06:10;5.90;;;4.53;;
44169;SDS011;29836;52.286;9.576;2023-06-26T06:08:36;5.38;;;4.20;;
44169;SDS011;29836;52.286;9.576;2023-06-26T06:11:02;5.75;;;4.28;;
44169;SDS011;29836;52.286;9.576;2023-06-26T06:13:27;5.60;;;4.50;;
44169;SDS011;29836;52.286;9.576;2023-06-26T06:15:53;5.90;;;4.25;;
44169;SDS011;29836;52.286;9.576;2023-06-26T06:18:19;5.20;;;4.15;;
44169;SDS011;29836;52.286;9.576;2023-06-26T06:20:45;6.28;;;4.32;;
44169;SDS011;29836;52.286;9.576;2023-06-26T06:23:10;7.20;;;4.72;;
44169;SDS011;29836;52.286;9.576;2023-06-26T06:25:36;6.63;;;4.75;;
44169;SDS011;29836;52.286;9.576;2023-06-26T06:28:02;7.53;;;4.30;;
44169;SDS011;29836;52.286;9.576;2023-06-26T06:30:29;7.13;;;4.78;;
44169;SDS011;29836;52.286;9.576;2023-06-26T06:32:54;6.72;;;4.32;;
44169;SDS011;29836;52.286;9.576;2023-06-26T06:35:20;6.53;;;4.32;;
44169;SDS011;29836;52.286;9.576;2023-06-26T06:37:45;6.85;;;4.68;;
44169;SDS011;29836;52.286;9.576;2023-06-26T06:40:11;6.13;;;4.80;;
44169;SDS011;29836;52.286;9.576;2023-06-26T06:42:37;6.10;;;4.43;;
44169;SDS011;29836;52.286;9.576;2023-06-26T06:45:03;7.30;;;4.43;;
44169;SDS011;29836;52.286;9.576;2023-06-26T06:47:29;7.15;;;4.32;;
44169;SDS011;29836;52.286;9.576;2023-06-26T06:49:55;7.00;;;4.60;;
44169;SDS011;29836;52.286;9.576;2023-06-26T06:52:20;12.00;;;4.70;;
44169;SDS011;29836;52.286;9.576;2023-06-26T06:54:53;11.35;;;4.78;;
44169;SDS011;29836;52.286;9.576;2023-06-26T06:57:20;6.15;;;4.50;;
44169;SDS011;29836;52.286;9.576;2023-06-26T06:59:46;7.72;;;4.90;;
44169;SDS011;29836;52.286;9.576;2023-06-26T07:02:12;6.22;;;4.63;;
44169;SDS011;29836;52.286;9.576;2023-06-26T07:04:38;6.85;;;4.95;;
44169;SDS011;29836;52.286;9.576;2023-06-26T07:07:03;6.63;;;4.75;;
44169;SDS011;29836;52.286;9.576;2023-06-26T07:09:29;7.55;;;4.78;;
44169;SDS011;29836;52.286;9.576;2023-06-26T07:11:55;7.32;;;4.53;;
44169;SDS011;29836;52.286;9.576;2023-06-26T07:14:20;7.18;;;5.07;;
44169;SDS011;29836;52.286;9.576;2023-06-26T07:16:46;7.82;;;5.30;;
44169;SDS011;29836;52.286;9.576;2023-06-26T07:19:11;6.32;;;5.00;;
44169;SDS011;29836;52.286;9.576;2023-06-26T07:21:37;6.63;;;5.03;;
44169;SDS011;29836;52.286;9.576;2023-06-26T07:24:02;5.90;;;4.22;;
44169;SDS011;29836;52.286;9.576;2023-06-26T07:26:28;6.35;;;4.68;;
44169;SDS011;29836;52.286;9.576;2023-06-26T07:28:53;6.63;;;4.90;;
44169;SDS011;29836;52.286;9.576;2023-06-26T07:31:21;5.93;;;4.95;;
44169;SDS011;29836;52.286;9.576;2023-06-26T07:33:47;6.47;;;5.13;;
44169;SDS011;29836;52.286;9.576;2023-06-26T07:36:13;5.68;;;4.65;;
44169;SDS011;29836;52.286;9.576;2023-06-26T07:38:38;7.82;;;5.28;;
44169;SDS011;29836;52.286;9.576;2023-06-26T07:41:04;6.70;;;4.85;;
44169;SDS011;29836;52.286;9.576;2023-06-26T07:43:29;10.55;;;5.38;;
44169;SDS011;29836;52.286;9.576;2023-06-26T07:45:56;6.47;;;4.82;;
44169;SDS011;29836;52.286;9.576;2023-06-26T07:48:23;6.75;;;5.10;;
44169;SDS011;29836;52.286;9.576;2023-06-26T07:50:49;6.60;;;5.00;;
44169;SDS011;29836;52.286;9.576;2023-06-26T07:53:15;8.77;;;5.10;;
44169;SDS011;29836;52.286;9.576;2023-06-26T07:55:40;5.75;;;4.70;;
44169;SDS011;29836;52.286;9.576;2023-06-26T07:58:06;6.43;;;4.70;;
44169;SDS011;29836;52.286;9.576;2023-06-26T08:00:32;6.82;;;4.95;;
44169;SDS011;29836;52.286;9.576;2023-06-26T08:02:58;6.20;;;4.88;;
44169;SDS011;29836;52.286;9.576;2023-06-26T08:05:23;7.32;;;5.53;;
44169;SDS011;29836;52.286;9.576;2023-06-26T08:07:49;6.20;;;5.22;;
44169;SDS011;29836;52.286;9.576;2023-06-26T08:10:14;8.43;;;4.95;;
44169;SDS011;29836;52.286;9.576;2023-06-26T08:12:40;8.38;;;5.13;;
44169;SDS011;29836;52.286;9.576;2023-06-26T08:15:07;7.35;;;5.30;;
44169;SDS011;29836;52.286;9.576;2023-06-26T08:17:34;6.63;;;5.15;;
44169;SDS011;29836;52.286;9.576;2023-06-26T08:20:01;8.43;;;5.53;;
44169;SDS011;29836;52.286;9.576;2023-06-26T08:22:27;6.60;;;5.18;;
44169;SDS011;29836;52.286;9.576;2023-06-26T08:24:52;6.38;;;5.30;;
44169;SDS011;29836;52.286;9.576;2023-06-26T08:27:18;6.10;;;4.97;;
44169;SDS011;29836;52.286;9.576;2023-06-26T08:29:43;8.30;;;5.28;;
44169;SDS011;29836;52.286;9.576;2023-06-26T08:32:09;7.47;;;5.55;;
44169;SDS011;29836;52.286;9.576;2023-06-26T08:34:34;6.38;;;5.53;;
44169;SDS011;29836;52.286;9.576;2023-06-26T08:37:00;8.13;;;5.75;;
44169;SDS011;29836;52.286;9.576;2023-06-26T08:39:25;8.10;;;5.45;;
44169;SDS011;29836;52.286;9.576;2023-06-26T08:41:51;6.95;;;5.38;;
44169;SDS011;29836;52.286;9.576;2023-06-26T08:44:17;7.43;;;5.10;;
44169;SDS011;29836;52.286;9.576;2023-06-26T08:46:43;7.03;;;5.40;;
44169;SDS011;29836;52.286;9.576;2023-06-26T08:49:13;6.85;;;5.65;;
44169;SDS011;29836;52.286;9.576;2023-06-26T08:51:45;9.85;;;5.65;;
44169;SDS011;29836;52.286;9.576;2023-06-26T08:54:17;14.13;;;6.50;;
44169;SDS011;29836;52.286;9.576;2023-06-26T08:56:53;8.32;;;6.05;;
44169;SDS011;29836;52.286;9.576;2023-06-26T08:59:20;9.82;;;6.80;;
44169;SDS011;29836;52.286;9.576;2023-06-26T09:01:46;9.52;;;6.43;;
44169;SDS011;29836;52.286;9.576;2023-06-26T09:04:12;9.77;;;7.63;;
44169;SDS011;29836;52.286;9.576;2023-06-26T09:06:39;10.32;;;7.13;;
44169;SDS011;29836;52.286;9.576;2023-06-26T09:09:04;8.98;;;7.13;;
44169;SDS011;29836;52.286;9.576;2023-06-26T09:11:30;12.10;;;7.57;;
44169;SDS011;29836;52.286;9.576;2023-06-26T09:13:55;10.93;;;7.40;;
44169;SDS011;29836;52.286;9.576;2023-06-26T09:16:24;9.68;;;7.03;;
44169;SDS011;29836;52.286;9.576;2023-06-26T09:18:51;9.02;;;6.72;;
44169;SDS011;29836;52.286;9.576;2023-06-26T09:21:17;9.25;;;6.78;;
44169;SDS011;29836;52.286;9.576;2023-06-26T09:23:43;10.65;;;6.85;;
44169;SDS011;29836;52.286;9.576;2023-06-26T09:26:08;10.38;;;7.03;;
44169;SDS011;29836;52.286;9.576;2023-06-26T09:28:35;8.75;;;6.63;;
44169;SDS011;29836;52.286;9.576;2023-06-26T09:31:04;8.50;;;6.70;;
44169;SDS011;29836;52.286;9.576;2023-06-26T09:33:34;12.52;;;7.40;;
44169;SDS011;29836;52.286;9.576;2023-06-26T09:36:06;8.43;;;6.40;;
44169;SDS011;29836;52.286;9.576;2023-06-26T09:38:34;10.63;;;7.05;;
44169;SDS011;29836;52.286;9.576;2023-06-26T09:41:01;9.23;;;6.78;;
44169;SDS011;29836;52.286;9.576;2023-06-26T09:43:27;12.07;;;8.30;;
44169;SDS011;29836;52.286;9.576;2023-06-26T09:45:53;12.77;;;8.77;;
44169;SDS011;29836;52.286;9.576;2023-06-26T09:48:19;11.10;;;8.93;;
44169;SDS011;29836;52.286;9.576;2023-06-26T09:50:45;15.38;;;9.20;;
44169;SDS011;29836;52.286;9.576;2023-06-26T09:53:11;11.25;;;8.80;;
44169;SDS011;29836;52.286;9.576;2023-06-26T09:55:40;11.18;;;8.80;;
44169;SDS011;29836;52.286;9.576;2023-06-26T09:58:09;12.55;;;9.90;;
44169;SDS011;29836;52.286;9.576;2023-06-26T10:00:39;12.35;;;9.23;;
44169;SDS011;29836;52.286;9.576;2023-06-26T10:03:06;13.52;;;10.30;;
44169;SDS011;29836;52.286;9.576;2023-06-26T10:05:31;14.10;;;10.52;;
44169;SDS011;29836;52.286;9.576;2023-06-26T10:07:57;12.93;;;10.10;;
44169;SDS011;29836;52.286;9.576;2023-06-26T10:10:23;14.02;;;10.05;;
44169;SDS011;29836;52.286;9.576;2023-06-26T10:12:51;15.07;;;9.95;;
44169;SDS011;29836;52.286;9.576;2023-06-26T10:15:22;14.43;;;9.48;;
44169;SDS011;29836;52.286;9.576;2023-06-26T10:17:49;15.43;;;10.55;;
44169;SDS011;29836;52.286;9.576;2023-06-26T10:20:16;15.90;;;10.23;;
44169;SDS011;29836;52.286;9.576;2023-06-26T10:22:44;15.40;;;10.23;;
44169;SDS011;29836;52.286;9.576;2023-06-26T10:25:12;12.15;;;10.40;;
44169;SDS011;29836;52.286;9.576;2023-06-26T10:27:42;11.77;;;10.35;;
44169;SDS011;29836;52.286;9.576;2023-06-26T10:30:13;14.02;;;10.85;;
44169;SDS011;29836;52.286;9.576;2023-06-26T10:32:42;14.95;;;10.48;;
44169;SDS011;29836;52.286;9.576;2023-06-26T10:35:10;13.60;;;10.27;;
44169;SDS011;29836;52.286;9.576;2023-06-26T10:37:40;14.80;;;10.50;;
44169;SDS011;29836;52.286;9.576;2023-06-26T10:40:17;13.48;;;10.75;;
44169;SDS011;29836;52.286;9.576;2023-06-26T10:42:47;12.88;;;9.10;;
44169;SDS011;29836;52.286;9.576;2023-06-26T10:45:21;12.27;;;7.97;;
44169;SDS011;29836;52.286;9.576;2023-06-26T10:47:48;10.48;;;6.97;;
44169;SDS011;29836;52.286;9.576;2023-06-26T10:50:24;10.90;;;7.50;;
44169;SDS011;29836;52.286;9.576;2023-06-26T10:53:33;13.77;;;8.02;;
44169;SDS011;29836;52.286;9.576;2023-06-26T10:55:47;13.80;;;7.72;;
44169;SDS011;29836;52.286;9.576;2023-06-26T10:58:31;9.93;;;7.65;;
44169;SDS011;29836;52.286;9.576;2023-06-26T11:03:38;12.18;;;7.78;;
44169;SDS011;29836;52.286;9.576;2023-06-26T11:11:15;14.23;;;8.52;;
44169;SDS011;29836;52.286;9.576;2023-06-26T11:13:41;13.10;;;8.05;;
44169;SDS011;29836;52.286;9.576;2023-06-26T11:16:09;13.90;;;8.23;;
44169;SDS011;29836;52.286;9.576;2023-06-26T11:18:37;13.02;;;8.32;;
44169;SDS011;29836;52.286;9.576;2023-06-26T11:21:07;11.57;;;8.35;;
44169;SDS011;29836;52.286;9.576;2023-06-26T11:23:33;9.73;;;7.78;;
44169;SDS011;29836;52.286;9.576;2023-06-26T11:26:19;11.57;;;7.97;;
44169;SDS011;29836;52.286;9.576;2023-06-26T11:28:51;12.85;;;8.27;;
44169;SDS011;29836;52.286;9.576;2023-06-26T11:31:26;13.43;;;7.82;;
44169;SDS011;29836;52.286;9.576;2023-06-26T11:33:56;12.93;;;8.68;;
44169;SDS011;29836;52.286;9.576;2023-06-26T11:36:26;12.95;;;8.63;;
44169;SDS011;29836;52.286;9.576;2023-06-26T11:38:56;13.55;;;8.00;;
44169;SDS011;29836;52.286;9.576;2023-06-26T11:41:26;12.23;;;8.10;;
44169;SDS011;29836;52.286;9.576;2023-06-26T11:43:53;11.27;;;7.75;;
44169;SDS011;29836;52.286;9.576;2023-06-26T11:46:20;13.82;;;8.77;;
44169;SDS011;29836;52.286;9.576;2023-06-26T11:48:46;12.35;;;9.45;;
44169;SDS011;29836;52.286;9.576;2023-06-26T11:51:12;15.23;;;9.55;;
44169;SDS011;29836;52.286;9.576;2023-06-26T11:53:40;9.02;;;7.45;;
44169;SDS011;29836;52.286;9.576;2023-06-26T11:56:10;8.00;;;4.97;;
44169;SDS011;29836;52.286;9.576;2023-06-26T12:01:35;7.63;;;4.25;;
44169;SDS011;29836;52.286;9.576;2023-06-26T12:04:09;8.25;;;4.13;;
44169;SDS011;29836;52.286;9.576;2023-06-26T12:06:47;7.85;;;4.45;;
44169;SDS011;29836;52.286;9.576;2023-06-26T12:09:15;6.45;;;4.35;;
44169;SDS011;29836;52.286;9.576;2023-06-26T12:11:43;9.55;;;4.25;;
44169;SDS011;29836;52.286;9.576;2023-06-26T12:14:12;5.65;;;3.50;;
44169;SDS011;29836;52.286;9.576;2023-06-26T12:16:38;6.80;;;4.10;;
44169;SDS011;29836;52.286;9.576;2023-06-26T12:19:05;7.13;;;3.70;;
44169;SDS011;29836;52.286;9.576;2023-06-26T12:24:08;7.22;;;3.58;;
44169;SDS011;29836;52.286;9.576;2023-06-26T12:26:35;6.10;;;3.85;;
44169;SDS011;29836;52.286;9.576;2023-06-26T12:29:04;7.32;;;3.83;;
44169;SDS011;29836;52.286;9.576;2023-06-26T12:31:31;7.65;;;3.90;;
44169;SDS011;29836;52.286;9.576;2023-06-26T12:33:58;7.22;;;4.00;;
44169;SDS011;29836;52.286;9.576;2023-06-26T12:36:24;6.63;;;4.30;;
44169;SDS011;29836;52.286;9.576;2023-06-26T12:38:50;7.63;;;3.70;;
44169;SDS011;29836;52.286;9.576;2023-06-26T12:41:17;5.70;;;3.53;;
44169;SDS011;29836;52.286;9.576;2023-06-26T12:43:45;5.20;;;2.95;;
44169;SDS011;29836;52.286;9.576;2023-06-26T12:46:11;8.02;;;3.30;;
44169;SDS011;29836;52.286;9.576;2023-06-26T12:48:40;5.03;;;2.90;;
44169;SDS011;29836;52.286;9.576;2023-06-26T12:53:42;4.75;;;2.75;;
44169;SDS011;29836;52.286;9.576;2023-06-26T12:56:08;5.10;;;2.63;;
44169;SDS011;29836;52.286;9.576;2023-06-26T12:58:35;5.28;;;2.53;;
44169;SDS011;29836;52.286;9.576;2023-06-26T13:01:02;8.75;;;2.90;;
44169;SDS011;29836;52.286;9.576;2023-06-26T13:03:29;4.22;;;2.65;;
44169;SDS011;29836;52.286;9.576;2023-06-26T13:05:55;4.30;;;2.88;;
44169;SDS011;29836;52.286;9.576;2023-06-26T13:08:20;7.25;;;2.90;;
44169;SDS011;29836;52.286;9.576;2023-06-26T13:10:46;4.57;;;2.58;;
44169;SDS011;29836;52.286;9.576;2023-06-26T13:13:11;5.88;;;2.60;;
44169;SDS011;29836;52.286;9.576;2023-06-26T13:15:37;5.53;;;2.47;;
44169;SDS011;29836;52.286;9.576;2023-06-26T13:18:02;4.50;;;2.60;;
44169;SDS011;29836;52.286;9.576;2023-06-26T13:20:28;3.85;;;2.45;;
44169;SDS011;29836;52.286;9.576;2023-06-26T13:22:54;3.97;;;2.30;;
44169;SDS011;29836;52.286;9.576;2023-06-26T13:25:20;4.75;;;2.78;;
44169;SDS011;29836;52.286;9.576;2023-06-26T13:27:46;6.07;;;2.30;;
44169;SDS011;29836;52.286;9.576;2023-06-26T13:30:13;5.03;;;2.30;;
44169;SDS011;29836;52.286;9.576;2023-06-26T13:32:39;5.78;;;2.35;;
44169;SDS011;29836;52.286;9.576;2023-06-26T13:35:05;4.57;;;2.30;;
44169;SDS011;29836;52.286;9.576;2023-06-26T13:37:31;6.70;;;2.22;;
44169;SDS011;29836;52.286;9.576;2023-06-26T13:39:59;4.90;;;2.33;;
44169;SDS011;29836;52.286;9.576;2023-06-26T13:42:24;6.35;;;2.20;;
44169;SDS011;29836;52.286;9.576;2023-06-26T13:44:50;5.28;;;2.50;;
44169;SDS011;29836;52.286;9.576;2023-06-26T13:47:15;6.78;;;2.35;;
44169;SDS011;29836;52.286;9.576;2023-06-26T13:49:41;3.35;;;2.10;;
44169;SDS011;29836;52.286;9.576;2023-06-26T13:52:07;4.50;;;2.53;;
44169;SDS011;29836;52.286;9.576;2023-06-26T13:54:34;5.47;;;2.33;;
44169;SDS011;29836;52.286;9.576;2023-06-26T13:57:01;7.75;;;2.28;;
44169;SDS011;29836;52.286;9.576;2023-06-26T13:59:27;5.13;;;2.35;;
44169;SDS011;29836;52.286;9.576;2023-06-26T14:01:53;4.80;;;2.20;;
44169;SDS011;29836;52.286;9.576;2023-06-26T14:04:19;4.90;;;2.38;;
44169;SDS011;29836;52.286;9.576;2023-06-26T14:06:44;4.78;;;2.15;;
44169;SDS011;29836;52.286;9.576;2023-06-26T14:09:10;3.63;;;2.22;;
44169;SDS011;29836;52.286;9.576;2023-06-26T14:11:36;3.63;;;2.30;;
44169;SDS011;29836;52.286;9.576;2023-06-26T14:14:02;4.63;;;2.60;;
44169;SDS011;29836;52.286;9.576;2023-06-26T14:16:28;4.53;;;2.17;;
44169;SDS011;29836;52.286;9.576;2023-06-26T14:18:54;5.07;;;2.00;;
44169;SDS011;29836;52.286;9.576;2023-06-26T14:21:20;3.38;;;2.00;;
44169;SDS011;29836;52.286;9.576;2023-06-26T14:23:46;4.88;;;1.85;;
44169;SDS011;29836;52.286;9.576;2023-06-26T14:26:12;3.88;;;2.10;;
44169;SDS011;29836;52.286;9.576;2023-06-26T14:28:37;3.50;;;2.00;;
44169;SDS011;29836;52.286;9.576;2023-06-26T14:31:04;6.07;;;1.90;;
44169;SDS011;29836;52.286;9.576;2023-06-26T14:33:30;3.55;;;2.08;;
44169;SDS011;29836;52.286;9.576;2023-06-26T14:35:55;3.65;;;2.13;;
44169;SDS011;29836;52.286;9.576;2023-06-26T14:38:21;3.67;;;1.92;;
44169;SDS011;29836;52.286;9.576;2023-06-26T14:40:46;4.70;;;2.20;;
44169;SDS011;29836;52.286;9.576;2023-06-26T14:43:12;4.93;;;2.28;;
44169;SDS011;29836;52.286;9.576;2023-06-26T14:45:38;4.55;;;1.95;;
44169;SDS011;29836;52.286;9.576;2023-06-26T14:48:03;4.45;;;2.20;;
44169;SDS011;29836;52.286;9.576;2023-06-26T14:50:29;4.43;;;1.92;;
44169;SDS011;29836;52.286;9.576;2023-06-26T14:52:54;3.75;;;2.08;;
44169;SDS011;29836;52.286;9.576;2023-06-26T14:55:20;5.88;;;2.00;;
44169;SDS011;29836;52.286;9.576;2023-06-26T14:57:46;6.10;;;2.20;;
44169;SDS011;29836;52.286;9.576;2023-06-26T15:00:11;8.25;;;2.22;;